sensor_id;sensor_type;location;lat;lon;timestamp;pressure;altitude;pressure_sealevel;temperature;humidity
54122;BME280;40029;58.708;50.190;2023-04-25T00:01:03;100017.06;;;15.59;17.32
54122;BME280;40029;58.708;50.190;2023-04-25T00:03:35;100025.88;;;15.58;17.40
54122;BME280;40029;58.708;50.190;2023-04-25T00:06:07;100017.16;;;15.57;17.27
54122;BME280;40029;58.708;50.190;2023-04-25T00:08:38;99966.91;;;15.32;17.49
54122;BME280;40029;58.708;50.190;2023-04-25T00:11:09;99971.97;;;15.19;17.42
54122;BME280;40029;58.708;50.190;2023-04-25T00:13:41;100016.72;;;15.49;17.61
54122;BME280;40029;58.708;50.190;2023-04-25T00:16:12;100018.63;;;15.47;17.55
54122;BME280;40029;58.708;50.190;2023-04-25T00:18:45;99982.25;;;15.23;17.58
54122;BME280;40029;58.708;50.190;2023-04-25T00:21:22;99988.06;;;15.29;17.64
54122;BME280;40029;58.708;50.190;2023-04-25T00:23:55;100024.56;;;15.50;17.51
54122;BME280;40029;58.708;50.190;2023-04-25T00:26:27;99976.47;;;15.17;17.55
54122;BME280;40029;58.708;50.190;2023-04-25T00:29:16;100022.66;;;15.37;17.45
54122;BME280;40029;58.708;50.190;2023-04-25T00:31:47;99941.91;;;14.93;17.64
54122;BME280;40029;58.708;50.190;2023-04-25T00:34:18;99983.47;;;15.16;17.44
54122;BME280;40029;58.708;50.190;2023-04-25T00:36:49;100038.09;;;15.43;17.55
54122;BME280;40029;58.708;50.190;2023-04-25T00:39:21;99991.03;;;15.22;17.48
54122;BME280;40029;58.708;50.190;2023-04-25T00:41:52;99990.44;;;15.17;17.45
54122;BME280;40029;58.708;50.190;2023-04-25T00:44:44;100019.59;;;15.29;17.48
54122;BME280;40029;58.708;50.190;2023-04-25T00:47:35;100043.50;;;15.40;17.83
54122;BME280;40029;58.708;50.190;2023-04-25T00:50:07;99991.41;;;14.99;17.58
54122;BME280;40029;58.708;50.190;2023-04-25T00:52:41;100037.97;;;15.29;17.46
54122;BME280;40029;58.708;50.190;2023-04-25T00:55:13;100029.47;;;15.23;17.56
54122;BME280;40029;58.708;50.190;2023-04-25T00:57:48;100000.16;;;14.99;17.57
54122;BME280;40029;58.708;50.190;2023-04-25T01:00:39;99988.97;;;14.96;17.65
54122;BME280;40029;58.708;50.190;2023-04-25T01:03:15;100003.63;;;15.00;17.65
54122;BME280;40029;58.708;50.190;2023-04-25T01:05:46;100040.03;;;15.39;17.56
54122;BME280;40029;58.708;50.190;2023-04-25T01:08:19;100025.91;;;15.09;17.75
54122;BME280;40029;58.708;50.190;2023-04-25T01:11:10;99991.63;;;14.79;17.83
54122;BME280;40029;58.708;50.190;2023-04-25T01:13:42;100053.00;;;15.09;17.84
54122;BME280;40029;58.708;50.190;2023-04-25T01:16:13;100043.50;;;15.07;17.86
54122;BME280;40029;58.708;50.190;2023-04-25T01:18:45;99995.16;;;14.78;17.79
54122;BME280;40029;58.708;50.190;2023-04-25T01:21:17;100053.63;;;14.97;18.22
54122;BME280;40029;58.708;50.190;2023-04-25T01:23:49;100034.41;;;14.96;17.99
54122;BME280;40029;58.708;50.190;2023-04-25T01:26:21;99990.84;;;14.77;17.66
54122;BME280;40029;58.708;50.190;2023-04-25T01:28:53;100040.03;;;15.06;17.75
54122;BME280;40029;58.708;50.190;2023-04-25T01:31:25;100050.28;;;15.11;17.53
54122;BME280;40029;58.708;50.190;2023-04-25T01:33:57;100055.53;;;15.11;17.46
54122;BME280;40029;58.708;50.190;2023-04-25T01:36:28;99989.16;;;14.75;17.57
54122;BME280;40029;58.708;50.190;2023-04-25T01:38:59;100059.00;;;15.11;17.44
54122;BME280;40029;58.708;50.190;2023-04-25T01:41:31;100065.03;;;15.13;17.60
54122;BME280;40029;58.708;50.190;2023-04-25T01:44:03;100056.06;;;15.17;17.43
54122;BME280;40029;58.708;50.190;2023-04-25T01:46:35;100000.69;;;14.89;17.43
54122;BME280;40029;58.708;50.190;2023-04-25T01:49:24;100055.81;;;15.22;17.25
54122;BME280;40029;58.708;50.190;2023-04-25T01:51:55;100047.25;;;15.18;17.29
54122;BME280;40029;58.708;50.190;2023-04-25T01:54:26;100056.66;;;15.22;17.23
54122;BME280;40029;58.708;50.190;2023-04-25T01:56:57;100028.69;;;15.06;17.32
54122;BME280;40029;58.708;50.190;2023-04-25T01:59:29;100062.66;;;15.24;17.29
54122;BME280;40029;58.708;50.190;2023-04-25T02:02:18;100061.53;;;15.30;17.17
54122;BME280;40029;58.708;50.190;2023-04-25T02:04:49;100021.81;;;15.03;17.01
54122;BME280;40029;58.708;50.190;2023-04-25T02:07:21;100022.50;;;15.07;16.95
54122;BME280;40029;58.708;50.190;2023-04-25T02:09:57;100021.34;;;15.12;16.69
54122;BME280;40029;58.708;50.190;2023-04-25T02:12:47;100063.13;;;15.33;17.11
54122;BME280;40029;58.708;50.190;2023-04-25T02:15:32;100079.16;;;15.44;17.08
54122;BME280;40029;58.708;50.190;2023-04-25T02:18:21;100036.59;;;15.21;17.20
54122;BME280;40029;58.708;50.190;2023-04-25T02:20:53;100066.03;;;15.44;17.17
54122;BME280;40029;58.708;50.190;2023-04-25T02:23:42;99996.59;;;15.00;17.08
54122;BME280;40029;58.708;50.190;2023-04-25T02:26:14;100005.91;;;15.06;16.91
54122;BME280;40029;58.708;50.190;2023-04-25T02:28:47;100081.97;;;15.57;17.20
54122;BME280;40029;58.708;50.190;2023-04-25T02:31:18;100095.66;;;15.63;16.99
54122;BME280;40029;58.708;50.190;2023-04-25T02:33:49;100102.63;;;15.64;17.16
54122;BME280;40029;58.708;50.190;2023-04-25T02:36:20;100097.97;;;15.69;17.10
54122;BME280;40029;58.708;50.190;2023-04-25T02:38:53;100048.50;;;15.44;17.14
54122;BME280;40029;58.708;50.190;2023-04-25T02:41:26;100054.28;;;15.51;16.92
54122;BME280;40029;58.708;50.190;2023-04-25T02:43:59;100058.50;;;15.54;16.95
54122;BME280;40029;58.708;50.190;2023-04-25T02:46:30;100107.47;;;15.88;16.87
54122;BME280;40029;58.708;50.190;2023-04-25T02:49:04;100107.41;;;15.89;16.87
54122;BME280;40029;58.708;50.190;2023-04-25T02:51:35;100068.13;;;15.70;16.84
54122;BME280;40029;58.708;50.190;2023-04-25T02:54:06;100110.88;;;15.90;16.63
54122;BME280;40029;58.708;50.190;2023-04-25T02:56:42;100057.63;;;15.70;16.77
54122;BME280;40029;58.708;50.190;2023-04-25T02:59:18;100111.22;;;15.99;16.72
54122;BME280;40029;58.708;50.190;2023-04-25T03:01:49;100076.44;;;15.79;16.76
54122;BME280;40029;58.708;50.190;2023-04-25T03:04:20;100083.41;;;15.95;16.50
54122;BME280;40029;58.708;50.190;2023-04-25T03:07:12;100090.88;;;16.03;16.13
54122;BME280;40029;58.708;50.190;2023-04-25T03:09:44;100121.53;;;16.34;16.68
54122;BME280;40029;58.708;50.190;2023-04-25T03:12:15;100114.16;;;16.41;16.08
54122;BME280;40029;58.708;50.190;2023-04-25T03:14:47;100123.38;;;16.48;15.92
54122;BME280;40029;58.708;50.190;2023-04-25T03:17:19;100036.34;;;16.07;15.96
54122;BME280;40029;58.708;50.190;2023-04-25T03:19:51;100103.97;;;16.50;16.18
54122;BME280;40029;58.708;50.190;2023-04-25T03:22:22;100079.03;;;16.42;15.83
54122;BME280;40029;58.708;50.190;2023-04-25T03:24:53;100135.59;;;16.81;15.95
54122;BME280;40029;58.708;50.190;2023-04-25T03:27:24;100119.78;;;16.81;15.90
54122;BME280;40029;58.708;50.190;2023-04-25T03:29:55;100086.06;;;16.57;15.60
54122;BME280;40029;58.708;50.190;2023-04-25T03:32:27;100117.66;;;16.87;16.04
54122;BME280;40029;58.708;50.190;2023-04-25T03:34:58;100089.69;;;16.70;15.75
54122;BME280;40029;58.708;50.190;2023-04-25T03:37:31;100086.03;;;16.73;15.36
54122;BME280;40029;58.708;50.190;2023-04-25T03:40:03;100047.63;;;16.55;15.41
54122;BME280;40029;58.708;50.190;2023-04-25T03:42:54;100097.75;;;16.97;15.48
54122;BME280;40029;58.708;50.190;2023-04-25T03:45:25;100050.72;;;16.77;15.01
54122;BME280;40029;58.708;50.190;2023-04-25T03:47:57;100142.13;;;17.34;15.07
54122;BME280;40029;58.708;50.190;2023-04-25T03:50:28;100139.78;;;17.43;14.98
54122;BME280;40029;58.708;50.190;2023-04-25T03:52:59;100100.91;;;17.33;14.82
54122;BME280;40029;58.708;50.190;2023-04-25T03:55:34;100118.03;;;17.40;14.51
54122;BME280;40029;58.708;50.190;2023-04-25T03:58:06;100105.63;;;17.42;14.84
54122;BME280;40029;58.708;50.190;2023-04-25T04:00:39;100085.41;;;17.42;14.40
54122;BME280;40029;58.708;50.190;2023-04-25T04:03:13;100145.06;;;17.72;14.43
54122;BME280;40029;58.708;50.190;2023-04-25T04:05:44;100107.25;;;17.59;14.65
54122;BME280;40029;58.708;50.190;2023-04-25T04:08:15;100095.66;;;17.61;14.17
54122;BME280;40029;58.708;50.190;2023-04-25T04:10:47;100099.25;;;17.74;14.12
54122;BME280;40029;58.708;50.190;2023-04-25T04:13:18;100112.50;;;17.87;13.97
54122;BME280;40029;58.708;50.190;2023-04-25T04:15:49;100058.94;;;17.58;14.51
54122;BME280;40029;58.708;50.190;2023-04-25T04:18:21;100097.44;;;17.89;14.02
54122;BME280;40029;58.708;50.190;2023-04-25T04:20:52;100149.72;;;18.24;13.79
54122;BME280;40029;58.708;50.190;2023-04-25T04:23:24;100107.28;;;18.14;13.83
54122;BME280;40029;58.708;50.190;2023-04-25T04:25:55;100108.88;;;18.17;13.83
54122;BME280;40029;58.708;50.190;2023-04-25T04:28:54;100152.31;;;18.53;13.83
54122;BME280;40029;58.708;50.190;2023-04-25T04:31:55;100102.81;;;18.29;13.66
54122;BME280;40029;58.708;50.190;2023-04-25T04:34:26;100135.22;;;18.58;13.77
54122;BME280;40029;58.708;50.190;2023-04-25T04:36:58;100095.69;;;18.44;13.70
54122;BME280;40029;58.708;50.190;2023-04-25T04:39:30;100088.94;;;18.40;13.68
54122;BME280;40029;58.708;50.190;2023-04-25T04:42:27;100115.59;;;18.62;13.34
54122;BME280;40029;58.708;50.190;2023-04-25T04:45:18;100136.63;;;18.91;13.47
54122;BME280;40029;58.708;50.190;2023-04-25T04:48:07;100108.50;;;18.90;13.51
54122;BME280;40029;58.708;50.190;2023-04-25T04:51:17;100104.50;;;18.97;12.98
54122;BME280;40029;58.708;50.190;2023-04-25T04:54:06;100063.72;;;18.76;12.96
54122;BME280;40029;58.708;50.190;2023-04-25T04:57:03;100159.63;;;19.41;12.91
54122;BME280;40029;58.708;50.190;2023-04-25T04:59:46;100149.44;;;19.48;12.86
54122;BME280;40029;58.708;50.190;2023-04-25T05:02:38;100160.34;;;19.56;12.79
54122;BME280;40029;58.708;50.190;2023-04-25T05:05:28;100139.53;;;19.64;12.78
54122;BME280;40029;58.708;50.190;2023-04-25T05:08:37;100155.72;;;19.85;12.52
54122;BME280;40029;58.708;50.190;2023-04-25T05:11:27;100110.47;;;19.64;12.32
54122;BME280;40029;58.708;50.190;2023-04-25T05:14:16;100145.31;;;19.95;12.38
54122;BME280;40029;58.708;50.190;2023-04-25T05:17:11;100157.63;;;20.20;12.23
54122;BME280;40029;58.708;50.190;2023-04-25T05:20:14;100124.25;;;20.06;11.96
54122;BME280;40029;58.708;50.190;2023-04-25T05:23:06;100134.13;;;20.28;12.04
54122;BME280;40029;58.708;50.190;2023-04-25T05:25:46;100158.31;;;20.47;11.68
54122;BME280;40029;58.708;50.190;2023-04-25T05:28:36;100116.50;;;20.40;11.67
54122;BME280;40029;58.708;50.190;2023-04-25T05:31:19;100124.00;;;20.46;11.29
54122;BME280;40029;58.708;50.190;2023-04-25T05:33:59;100110.34;;;20.52;11.38
54122;BME280;40029;58.708;50.190;2023-04-25T05:36:40;100159.06;;;20.74;11.25
54122;BME280;40029;58.708;50.190;2023-04-25T05:39:12;100159.56;;;20.79;11.02
54122;BME280;40029;58.708;50.190;2023-04-25T05:42:01;100162.00;;;20.82;11.13
54122;BME280;40029;58.708;50.190;2023-04-25T05:44:53;100137.34;;;20.68;11.28
54122;BME280;40029;58.708;50.190;2023-04-25T05:47:50;100161.66;;;20.97;11.15
54122;BME280;40029;58.708;50.190;2023-04-25T05:50:41;100068.88;;;20.64;11.06
54122;BME280;40029;58.708;50.190;2023-04-25T05:53:39;100123.75;;;20.97;11.14
54122;BME280;40029;58.708;50.190;2023-04-25T05:56:10;100161.22;;;21.39;11.08
54122;BME280;40029;58.708;50.190;2023-04-25T05:58:41;100163.50;;;21.43;10.57
54122;BME280;40029;58.708;50.190;2023-04-25T06:01:15;100168.47;;;21.59;10.51
54122;BME280;40029;58.708;50.190;2023-04-25T06:03:48;100114.84;;;21.33;10.49
54122;BME280;40029;58.708;50.190;2023-04-25T06:06:21;100120.03;;;21.46;10.41
54122;BME280;40029;58.708;50.190;2023-04-25T06:08:53;100123.63;;;21.56;10.46
54122;BME280;40029;58.708;50.190;2023-04-25T06:11:24;100149.69;;;21.85;10.00
54122;BME280;40029;58.708;50.190;2023-04-25T06:13:55;100166.09;;;21.90;10.19
54122;BME280;40029;58.708;50.190;2023-04-25T06:16:45;100168.84;;;22.00;9.67
54122;BME280;40029;58.708;50.190;2023-04-25T06:19:16;100138.47;;;21.70;9.95
54122;BME280;40029;58.708;50.190;2023-04-25T06:21:47;100172.56;;;22.08;9.86
54122;BME280;40029;58.708;50.190;2023-04-25T06:24:19;100122.94;;;21.88;9.78
54122;BME280;40029;58.708;50.190;2023-04-25T06:26:50;100173.53;;;22.30;9.72
54122;BME280;40029;58.708;50.190;2023-04-25T06:29:21;100106.88;;;21.89;9.43
54122;BME280;40029;58.708;50.190;2023-04-25T06:31:52;100160.78;;;22.24;9.38
54122;BME280;40029;58.708;50.190;2023-04-25T06:34:42;100185.69;;;22.55;9.50
54122;BME280;40029;58.708;50.190;2023-04-25T06:37:34;100177.00;;;22.53;9.44
54122;BME280;40029;58.708;50.190;2023-04-25T06:40:07;100145.41;;;22.38;9.15
54122;BME280;40029;58.708;50.190;2023-04-25T06:42:39;100124.47;;;22.24;9.31
54122;BME280;40029;58.708;50.190;2023-04-25T06:45:46;100165.84;;;22.70;8.86
54122;BME280;40029;58.708;50.190;2023-04-25T06:48:17;100164.50;;;22.76;8.92
54122;BME280;40029;58.708;50.190;2023-04-25T06:51:06;100173.91;;;22.91;8.82
54122;BME280;40029;58.708;50.190;2023-04-25T06:53:42;100183.91;;;22.99;8.61
54122;BME280;40029;58.708;50.190;2023-04-25T06:56:28;100153.09;;;22.96;8.53
54122;BME280;40029;58.708;50.190;2023-04-25T06:59:06;100151.03;;;23.00;8.52
54122;BME280;40029;58.708;50.190;2023-04-25T07:01:56;100157.56;;;22.84;8.77
54122;BME280;40029;58.708;50.190;2023-04-25T07:04:30;100177.41;;;23.12;8.75
54122;BME280;40029;58.708;50.190;2023-04-25T07:07:03;100162.63;;;22.99;8.58
54122;BME280;40029;58.708;50.190;2023-04-25T07:09:52;100188.16;;;23.32;8.13
54122;BME280;40029;58.708;50.190;2023-04-25T07:12:25;100164.91;;;23.24;8.21
54122;BME280;40029;58.708;50.190;2023-04-25T07:14:56;100160.25;;;23.37;7.91
54122;BME280;40029;58.708;50.190;2023-04-25T07:17:28;100195.88;;;23.56;7.81
54122;BME280;40029;58.708;50.190;2023-04-25T07:19:59;100164.81;;;23.35;7.87
54122;BME280;40029;58.708;50.190;2023-04-25T07:22:49;100205.63;;;23.45;7.38
54122;BME280;40029;58.708;50.190;2023-04-25T07:25:21;100166.78;;;23.33;7.27
54122;BME280;40029;58.708;50.190;2023-04-25T07:27:53;100134.53;;;23.27;7.12
54122;BME280;40029;58.708;50.190;2023-04-25T07:30:26;100193.81;;;23.80;7.18
54122;BME280;40029;58.708;50.190;2023-04-25T07:32:57;100189.66;;;23.87;7.23
54122;BME280;40029;58.708;50.190;2023-04-25T07:35:28;100193.59;;;23.93;6.62
54122;BME280;40029;58.708;50.190;2023-04-25T07:38:01;100176.19;;;23.79;6.54
54122;BME280;40029;58.708;50.190;2023-04-25T07:40:33;100184.25;;;24.08;6.22
54122;BME280;40029;58.708;50.190;2023-04-25T07:43:10;100146.50;;;23.84;6.55
54122;BME280;40029;58.708;50.190;2023-04-25T07:45:56;100181.16;;;24.03;6.33
54122;BME280;40029;58.708;50.190;2023-04-25T07:48:46;100154.84;;;24.00;6.59
54122;BME280;40029;58.708;50.190;2023-04-25T07:51:17;100197.50;;;24.29;6.10
54122;BME280;40029;58.708;50.190;2023-04-25T07:54:12;100155.59;;;24.31;5.67
54122;BME280;40029;58.708;50.190;2023-04-25T07:56:48;100165.00;;;24.35;5.59
54122;BME280;40029;58.708;50.190;2023-04-25T07:59:20;100146.56;;;24.53;5.63
54122;BME280;40029;58.708;50.190;2023-04-25T08:01:51;100152.34;;;24.68;5.20
54122;BME280;40029;58.708;50.190;2023-04-25T08:04:24;100117.69;;;24.39;5.45
54122;BME280;40029;58.708;50.190;2023-04-25T08:07:06;100151.31;;;24.59;4.98
54122;BME280;40029;58.708;50.190;2023-04-25T08:09:49;100115.69;;;24.41;4.57
54122;BME280;40029;58.708;50.190;2023-04-25T08:12:28;100195.34;;;24.63;4.44
54122;BME280;40029;58.708;50.190;2023-04-25T08:15:03;100204.22;;;24.74;4.22
54122;BME280;40029;58.708;50.190;2023-04-25T08:17:39;100151.63;;;24.16;4.45
54122;BME280;40029;58.708;50.190;2023-04-25T08:20:11;100192.63;;;24.34;4.60
54122;BME280;40029;58.708;50.190;2023-04-25T08:22:43;100150.09;;;24.13;4.60
54122;BME280;40029;58.708;50.190;2023-04-25T08:25:40;100146.47;;;24.14;4.87
54122;BME280;40029;58.708;50.190;2023-04-25T08:28:12;100187.16;;;24.36;4.53
54122;BME280;40029;58.708;50.190;2023-04-25T08:30:44;100190.81;;;24.35;4.62
54122;BME280;40029;58.708;50.190;2023-04-25T08:33:17;100183.75;;;24.64;4.37
54122;BME280;40029;58.708;50.190;2023-04-25T08:36:12;100159.19;;;24.51;4.51
54122;BME280;40029;58.708;50.190;2023-04-25T08:38:43;100180.38;;;24.82;4.51
54122;BME280;40029;58.708;50.190;2023-04-25T08:41:32;100134.09;;;24.73;4.54
54122;BME280;40029;58.708;50.190;2023-04-25T08:44:05;100190.47;;;24.78;4.09
54122;BME280;40029;58.708;50.190;2023-04-25T08:46:39;100181.06;;;24.84;4.25
54122;BME280;40029;58.708;50.190;2023-04-25T08:49:22;100154.84;;;24.69;4.15
54122;BME280;40029;58.708;50.190;2023-04-25T08:51:57;100151.03;;;24.43;4.26
54122;BME280;40029;58.708;50.190;2023-04-25T08:54:31;100191.94;;;24.42;4.38
54122;BME280;40029;58.708;50.190;2023-04-25T08:57:21;100179.50;;;24.42;4.40
54122;BME280;40029;58.708;50.190;2023-04-25T08:59:54;100153.97;;;24.50;4.33
54122;BME280;40029;58.708;50.190;2023-04-25T09:02:27;100172.50;;;24.80;4.00
54122;BME280;40029;58.708;50.190;2023-04-25T09:04:59;100166.34;;;24.99;4.32
54122;BME280;40029;58.708;50.190;2023-04-25T09:07:30;100135.34;;;24.59;4.33
54122;BME280;40029;58.708;50.190;2023-04-25T09:10:01;100161.31;;;25.25;4.14
54122;BME280;40029;58.708;50.190;2023-04-25T09:12:37;100172.78;;;25.45;3.81
54122;BME280;40029;58.708;50.190;2023-04-25T09:15:12;100175.22;;;25.76;3.63
54122;BME280;40029;58.708;50.190;2023-04-25T09:18:14;100134.00;;;25.51;3.67
54122;BME280;40029;58.708;50.190;2023-04-25T09:20:56;100173.31;;;25.58;3.52
54122;BME280;40029;58.708;50.190;2023-04-25T09:23:28;100139.13;;;25.25;3.59
54122;BME280;40029;58.708;50.190;2023-04-25T09:25:59;100170.91;;;25.55;3.66
54122;BME280;40029;58.708;50.190;2023-04-25T09:28:31;100154.56;;;25.78;3.48
54122;BME280;40029;58.708;50.190;2023-04-25T09:31:05;100138.59;;;25.11;3.53
54122;BME280;40029;58.708;50.190;2023-04-25T09:33:48;100135.47;;;24.97;3.49
54122;BME280;40029;58.708;50.190;2023-04-25T09:36:26;100182.50;;;25.36;3.12
54122;BME280;40029;58.708;50.190;2023-04-25T09:39:28;100166.03;;;25.31;3.17
54122;BME280;40029;58.708;50.190;2023-04-25T09:42:22;100145.66;;;25.50;2.96
54122;BME280;40029;58.708;50.190;2023-04-25T09:44:56;100178.31;;;25.71;2.72
54122;BME280;40029;58.708;50.190;2023-04-25T09:47:45;100147.63;;;25.57;3.09
54122;BME280;40029;58.708;50.190;2023-04-25T09:50:19;100153.78;;;25.58;3.14
54122;BME280;40029;58.708;50.190;2023-04-25T09:53:05;100179.03;;;25.83;2.75
54122;BME280;40029;58.708;50.190;2023-04-25T09:55:56;100154.22;;;25.43;3.23
54122;BME280;40029;58.708;50.190;2023-04-25T09:58:29;100131.94;;;25.35;3.38
54122;BME280;40029;58.708;50.190;2023-04-25T10:01:03;100173.97;;;25.70;3.39
54122;BME280;40029;58.708;50.190;2023-04-25T10:03:55;100163.97;;;25.82;3.63
54122;BME280;40029;58.708;50.190;2023-04-25T10:07:05;100143.50;;;25.63;2.95
54122;BME280;40029;58.708;50.190;2023-04-25T10:09:38;100170.69;;;25.96;3.32
54122;BME280;40029;58.708;50.190;2023-04-25T10:12:12;100167.63;;;26.36;3.03
54122;BME280;40029;58.708;50.190;2023-04-25T10:14:44;100183.66;;;26.36;2.47
54122;BME280;40029;58.708;50.190;2023-04-25T10:17:15;100127.91;;;26.05;3.18
54122;BME280;40029;58.708;50.190;2023-04-25T10:19:47;100149.66;;;26.38;2.66
54122;BME280;40029;58.708;50.190;2023-04-25T10:22:36;100176.16;;;26.22;2.64
54122;BME280;40029;58.708;50.190;2023-04-25T10:25:09;100193.88;;;26.23;3.00
54122;BME280;40029;58.708;50.190;2023-04-25T10:27:41;100190.13;;;26.33;3.05
54122;BME280;40029;58.708;50.190;2023-04-25T10:30:15;100187.13;;;26.46;3.73
54122;BME280;40029;58.708;50.190;2023-04-25T10:32:47;100180.47;;;26.78;3.11
54122;BME280;40029;58.708;50.190;2023-04-25T10:35:24;100170.22;;;26.91;2.58
54122;BME280;40029;58.708;50.190;2023-04-25T10:38:05;100202.59;;;26.52;2.75
54122;BME280;40029;58.708;50.190;2023-04-25T10:40:37;100186.72;;;26.41;3.30
54122;BME280;40029;58.708;50.190;2023-04-25T10:46:24;100191.94;;;26.42;2.90
54122;BME280;40029;58.708;50.190;2023-04-25T10:48:57;100190.06;;;26.25;3.67
54122;BME280;40029;58.708;50.190;2023-04-25T10:54:02;100174.19;;;25.96;3.58
54122;BME280;40029;58.708;50.190;2023-04-25T10:56:38;100179.72;;;26.40;3.83
54122;BME280;40029;58.708;50.190;2023-04-25T10:59:16;100181.44;;;26.59;3.15
54122;BME280;40029;58.708;50.190;2023-04-25T11:01:52;100107.09;;;26.27;3.19
54122;BME280;40029;58.708;50.190;2023-04-25T11:04:33;100176.34;;;26.65;2.81
54122;BME280;40029;58.708;50.190;2023-04-25T11:09:40;100170.78;;;26.77;3.28
54122;BME280;40029;58.708;50.190;2023-04-25T11:12:11;100171.59;;;26.59;3.55
54122;BME280;40029;58.708;50.190;2023-04-25T11:14:43;100179.63;;;26.59;3.46
54122;BME280;40029;58.708;50.190;2023-04-25T11:17:15;100187.19;;;26.64;3.51
54122;BME280;40029;58.708;50.190;2023-04-25T11:19:48;100148.84;;;26.28;3.67
54122;BME280;40029;58.708;50.190;2023-04-25T11:22:21;100185.56;;;26.53;3.36
54122;BME280;40029;58.708;50.190;2023-04-25T11:24:52;100139.38;;;26.61;3.51
54122;BME280;40029;58.708;50.190;2023-04-25T11:27:24;100157.47;;;27.03;3.25
54122;BME280;40029;58.708;50.190;2023-04-25T11:29:55;100171.50;;;27.23;3.09
54122;BME280;40029;58.708;50.190;2023-04-25T11:32:27;100138.50;;;27.14;3.07
54122;BME280;40029;58.708;50.190;2023-04-25T11:35:16;100155.38;;;26.97;3.34
54122;BME280;40029;58.708;50.190;2023-04-25T11:37:48;100130.13;;;26.91;3.65
54122;BME280;40029;58.708;50.190;2023-04-25T11:40:20;100118.31;;;27.20;3.47
54122;BME280;40029;58.708;50.190;2023-04-25T11:42:52;100144.00;;;27.64;3.13
54122;BME280;40029;58.708;50.190;2023-04-25T11:45:23;100113.72;;;27.98;3.23
54122;BME280;40029;58.708;50.190;2023-04-25T11:47:54;100126.47;;;28.71;2.33
54122;BME280;40029;58.708;50.190;2023-04-25T11:50:44;100145.09;;;29.30;1.86
54122;BME280;40029;58.708;50.190;2023-04-25T11:53:17;100140.72;;;29.29;1.29
54122;BME280;40029;58.708;50.190;2023-04-25T11:55:48;100153.44;;;29.59;1.47
54122;BME280;40029;58.708;50.190;2023-04-25T11:58:58;100153.88;;;29.87;0.93
54122;BME280;40029;58.708;50.190;2023-04-25T12:01:49;100141.16;;;30.21;1.07
54122;BME280;40029;58.708;50.190;2023-04-25T12:04:22;100110.28;;;30.08;0.79
54122;BME280;40029;58.708;50.190;2023-04-25T12:06:55;100102.66;;;29.89;0.70
54122;BME280;40029;58.708;50.190;2023-04-25T12:09:31;100148.22;;;29.74;0.91
54122;BME280;40029;58.708;50.190;2023-04-25T12:12:02;100155.00;;;29.29;1.37
54122;BME280;40029;58.708;50.190;2023-04-25T12:14:51;100104.38;;;29.02;1.45
54122;BME280;40029;58.708;50.190;2023-04-25T12:17:23;100145.03;;;29.54;1.45
54122;BME280;40029;58.708;50.190;2023-04-25T12:19:54;100148.19;;;29.82;1.48
54122;BME280;40029;58.708;50.190;2023-04-25T12:22:25;100132.19;;;29.89;1.42
54122;BME280;40029;58.708;50.190;2023-04-25T12:24:57;100155.66;;;30.03;1.28
54122;BME280;40029;58.708;50.190;2023-04-25T12:27:30;100157.09;;;30.22;0.75
54122;BME280;40029;58.708;50.190;2023-04-25T12:30:02;100117.97;;;30.11;0.85
54122;BME280;40029;58.708;50.190;2023-04-25T12:32:38;100108.78;;;30.06;0.69
54122;BME280;40029;58.708;50.190;2023-04-25T12:35:09;100139.47;;;30.51;0.56
54122;BME280;40029;58.708;50.190;2023-04-25T12:37:40;100153.50;;;30.38;0.29
54122;BME280;40029;58.708;50.190;2023-04-25T12:40:11;100089.66;;;29.70;0.70
54122;BME280;40029;58.708;50.190;2023-04-25T12:43:01;100145.69;;;29.73;1.06
54122;BME280;40029;58.708;50.190;2023-04-25T12:45:32;100127.13;;;29.30;1.08
54122;BME280;40029;58.708;50.190;2023-04-25T12:48:04;100094.94;;;29.30;0.92
54122;BME280;40029;58.708;50.190;2023-04-25T12:50:35;100137.06;;;29.85;0.81
54122;BME280;40029;58.708;50.190;2023-04-25T12:53:06;100106.78;;;29.60;0.99
54122;BME280;40029;58.708;50.190;2023-04-25T12:55:37;100103.75;;;29.55;1.10
54122;BME280;40029;58.708;50.190;2023-04-25T12:58:08;100135.34;;;29.45;0.86
54122;BME280;40029;58.708;50.190;2023-04-25T13:00:39;100084.84;;;29.57;0.64
54122;BME280;40029;58.708;50.190;2023-04-25T13:03:11;100124.31;;;29.87;1.19
54122;BME280;40029;58.708;50.190;2023-04-25T13:05:43;100082.22;;;29.80;0.82
54122;BME280;40029;58.708;50.190;2023-04-25T13:08:14;100123.19;;;30.13;0.37
54122;BME280;40029;58.708;50.190;2023-04-25T13:10:47;100106.41;;;29.72;0.74
54122;BME280;40029;58.708;50.190;2023-04-25T13:13:18;100119.53;;;29.67;0.77
54122;BME280;40029;58.708;50.190;2023-04-25T13:15:50;100110.63;;;29.66;0.86
54122;BME280;40029;58.708;50.190;2023-04-25T13:18:21;100116.16;;;29.64;1.00
54122;BME280;40029;58.708;50.190;2023-04-25T13:20:53;100093.72;;;29.49;1.19
54122;BME280;40029;58.708;50.190;2023-04-25T13:23:25;100104.31;;;29.34;1.17
54122;BME280;40029;58.708;50.190;2023-04-25T13:25:57;100049.19;;;28.83;1.71
54122;BME280;40029;58.708;50.190;2023-04-25T13:28:29;100029.56;;;28.17;1.85
54122;BME280;40029;58.708;50.190;2023-04-25T13:31:00;100089.44;;;28.67;1.79
54122;BME280;40029;58.708;50.190;2023-04-25T13:33:31;100112.22;;;28.87;1.59
54122;BME280;40029;58.708;50.190;2023-04-25T13:36:02;100062.97;;;28.63;1.70
54122;BME280;40029;58.708;50.190;2023-04-25T13:38:33;100064.13;;;28.61;1.82
54122;BME280;40029;58.708;50.190;2023-04-25T13:41:23;100065.41;;;28.32;2.15
54122;BME280;40029;58.708;50.190;2023-04-25T13:43:54;100046.09;;;27.88;2.29